Thunder radar more information blitzortung!


Radar de pluja more information rain snow radar


Visita la nostra xarxa de llocs de meteo:

Template documentation
and downloads

And another site



Extreme low temperature From: 13-12-2017 09:00 Until: 09:59 warning for: Extreme low temperature Level: Yellow info button

Pagina Historial Weather Underground text

Diari Resum Novembre 21, 2017 Unitats:  Imperial    Mètric   Tant
« Previous Dia
SegĂźent Dia »
Diari Setmana Mensual Anual Personalitzada
  Maxima: Minima: Media:
Temperatura: 66.4 °F 40.6 °F 54.7 °F
Punt de rosada: 44.4 °F 28.6 °F 36.7 °F
Humitat: 62 % 42 % 51 %
Wind Speed: 3.5 mph 0 mph 1.4 mph
RĂ fegues de vent: 3.5 mph - -
Vent:- - SSE
Pression baro: 30.2 in 30.1 in -
Precipitacions: 0 in    
Historical Graphs
 
 
Dades de taula per Novembre 21, 2017
Temps Temperatura Punt de rosada Pression baro Vent Wind Speed RĂ fegues de vent Humitat Rainfall Rate (Hourly)
00:00 42.8 °F 29.8 °F 30.2 in North 1 mph 2 mph 60 % 0 in
00:03 44.6 °F 30.7 °F 30.2 in NNE 1.2 mph   58 % 0 in
00:20 42.3 °F 29.5 °F 30.2 in NNE 1 mph 3 mph 60 % 0 in
00:30 42.4 °F 29.5 °F 30.2 in North 1 mph 3 mph 60 % 0 in
00:40 42.3 °F 29.8 °F 30.2 in Calm   2 mph 61 % 0 in
00:50 41.5 °F 29.1 °F 30.2 in Calm   1 mph 61 % 0 in
01:00 41.2 °F 28.8 °F 30.2 in North 1 mph 1 mph 61 % 0 in
01:10 41 °F 28.6 °F 30.2 in NNE 1 mph 2 mph 61 % 0 in
01:20 40.6 °F 28.6 °F 30.2 in Calm   1 mph 62 % 0 in
01:50 40.6 °F 28.6 °F 30.2 in Calm   2 mph 62 % 0 in
02:10 41.4 °F 29.3 °F 30.2 in NW 1 mph 2 mph 62 % 0 in
02:20 42.3 °F 30.2 °F 30.2 in Calm   2 mph 62 % 0 in
02:30 43 °F 30.7 °F 30.2 in North 1 mph 2 mph 62 % 0 in
02:50 45.1 °F 32.5 °F 30.2 in NNW 1 mph 1 mph 61 % 0 in
03:00 46.6 °F 33.4 °F 30.2 in Calm   1 mph 60 % 0 in
03:10 47.1 °F 33.4 °F 30.2 in North 1 mph 1 mph 59 % 0 in
03:20 48.2 °F 34.5 °F 30.2 in North 1 mph 1 mph 59 % 0 in
03:30 48.6 °F 34.3 °F 30.2 in Calm   3 mph 58 % 0 in
03:40 49.5 °F 34.9 °F 30.2 in NNE 1 mph 2 mph 57 % 0 in
03:50 50 °F 35.4 °F 30.2 in NNE 1 mph 2 mph 57 % 0 in
04:00 50.7 °F 35.6 °F 30.2 in NE 2 mph 3 mph 56 % 0 in
04:30 52.3 °F 36.1 °F 30.2 in NE 2 mph 3 mph 54 % 0 in
10:38 53.6 °F 37.2 °F 30.2 in NE 2.4 mph 2.4 mph 54 % 0 in
10:39 53.6 °F 37.2 °F 30.2 in NE 2.3 mph 2.3 mph 54 % 0 in
10:44 53.8 °F 37.6 °F 30.2 in NE 2.3 mph 2.3 mph 54 % 0 in
10:54 54.1 °F 37.4 °F 30.2 in South 2.3 mph 2.3 mph 53 % 0 in
11:04 55.8 °F 38.8 °F 30.2 in WSW 2.3 mph 2.3 mph 53 % 0 in
11:09 56.1 °F 39.2 °F 30.2 in NW 1.6 mph 1.6 mph 53 % 0 in
11:14 55.8 °F 38.8 °F 30.2 in NNE 1.2 mph 1.2 mph 53 % 0 in
11:24 56.7 °F 39.2 °F 30.2 in SSW 1.2 mph   52 % 0 in
11:29 57 °F 39.6 °F 30.2 in WSW 2.3 mph 2.3 mph 52 % 0 in
11:34 57.2 °F 39.7 °F 30.2 in East 1.2 mph 1.2 mph 52 % 0 in
11:44 57.4 °F 39.9 °F 30.2 in ENE 3.5 mph 3.5 mph 52 % 0 in
11:49 57.6 °F 40.1 °F 30.2 in NE 2.3 mph 2.3 mph 52 % 0 in
11:54 58.1 °F 40.6 °F 30.2 in ENE 1.2 mph 1.2 mph 52 % 0 in
11:59 58.5 °F 40.8 °F 30.2 in NNE 2.3 mph 2.3 mph 52 % 0 in
12:04 58.3 °F 40.6 °F 30.2 in NE 2.3 mph 2.6 mph 52 % 0 in
12:09 58.3 °F 40.3 °F 30.2 in NNE 3.5 mph 3.5 mph 51 % 0 in
12:14 58.6 °F 40.6 °F 30.2 in NNW 1.2 mph 1.2 mph 51 % 0 in
12:19 59.4 °F 41.2 °F 30.2 in ENE 2.3 mph   51 % 0 in
12:24 59.5 °F 41.4 °F 30.2 in NE 2.3 mph 2.3 mph 51 % 0 in
12:29 60.1 °F 41.9 °F 30.2 in NE 2.3 mph 2.3 mph 51 % 0 in
12:39 61 °F 42.6 °F 30.2 in West 1.2 mph 1.2 mph 51 % 0 in
12:44 61.9 °F 43.5 °F 30.2 in ESE 2.3 mph 2.3 mph 51 % 0 in
12:49 61.9 °F 43 °F 30.2 in East 2.3 mph 2.3 mph 50 % 0 in
12:54 61.7 °F 43 °F 30.2 in ESE 1.6 mph 1.6 mph 50 % 0 in
12:59 61.7 °F 43 °F 30.2 in ENE 3.5 mph 3.5 mph 50 % 0 in
13:04 62.2 °F 43.3 °F 30.2 in East 2.6 mph 2.6 mph 50 % 0 in
13:09 62.4 °F 43.5 °F 30.2 in ESE 1.2 mph   50 % 0 in
13:14 62.4 °F 43.5 °F 30.2 in ENE 2.4 mph 2.4 mph 50 % 0 in
13:19 62.6 °F 43.2 °F 30.2 in NNW 1.2 mph   49 % 0 in
13:24 62.8 °F 43.3 °F 30.2 in NE 3.5 mph 3.5 mph 49 % 0 in
13:27 62.8 °F 43.3 °F 30.2 in NW 2.3 mph 2.3 mph 49 % 0 in
13:30 62.8 °F 43.3 °F 30.2 in Calm     49 % 0 in
13:40 63.3 °F 43.9 °F 30.2 in ENE 2.3 mph 2.3 mph 49 % 0 in
13:45 63.5 °F 44.1 °F 30.2 in East 2.3 mph 2.3 mph 49 % 0 in
13:50 63.9 °F 44.2 °F 30.2 in NNE 2.4 mph 2.4 mph 49 % 0 in
14:00 64 °F 44.4 °F 30.2 in ENE 2.3 mph 2.3 mph 49 % 0 in
14:10 64.4 °F 44.2 °F 30.2 in NE 2.3 mph 2.3 mph 48 % 0 in
14:15 64.6 °F 44.4 °F 30.2 in ENE 2.3 mph 2.3 mph 48 % 0 in
14:20 64.6 °F 44.4 °F 30.2 in NNW 2.3 mph 2.3 mph 48 % 0 in
14:25 64.8 °F 44.1 °F 30.2 in NNW 1.2 mph 1.2 mph 47 % 0 in
14:30 64.8 °F 44.1 °F 30.2 in ENE 2.3 mph 2.3 mph 47 % 0 in
14:40 64.8 °F 43.5 °F 30.2 in NE 1.2 mph   46 % 0 in
14:55 65.1 °F 43.2 °F 30.2 in ESE 2.3 mph 2.6 mph 45 % 0 in
15:00 65.3 °F 43.3 °F 30.2 in ESE 2.6 mph 2.6 mph 45 % 0 in
15:05 65.5 °F 43.5 °F 30.2 in SE 3.5 mph 3.5 mph 45 % 0 in
15:15 65.7 °F 43.7 °F 30.2 in ENE 2.3 mph 2.3 mph 45 % 0 in
15:30 66 °F 43.5 °F 30.2 in East 2.4 mph 2.4 mph 44 % 0 in
15:35 66 °F 43.5 °F 30.2 in East 2.3 mph 2.3 mph 44 % 0 in
15:40 66.2 °F 43 °F 30.2 in East 2.3 mph 2.3 mph 43 % 0 in
15:45 66.2 °F 43 °F 30.2 in East 2.3 mph 2.3 mph 43 % 0 in
15:50 66.4 °F 43.2 °F 30.2 in East 1.2 mph 1.4 mph 43 % 0 in
15:55 66.4 °F 43.2 °F 30.2 in ENE 1.2 mph   43 % 0 in
16:05 66.2 °F 43 °F 30.2 in Calm     43 % 0 in
16:15 66.4 °F 42.6 °F 30.2 in East 2.3 mph 2.3 mph 42 % 0 in
16:20 66.2 °F 42.4 °F 30.2 in East 2.4 mph 2.4 mph 42 % 0 in
16:25 66.2 °F 42.4 °F 30.2 in East 2.3 mph 2.3 mph 42 % 0 in
16:30 66.2 °F 42.4 °F 30.2 in East 1.2 mph 1.2 mph 42 % 0 in
16:40 66 °F 43 °F 30.2 in East 1.4 mph 1.4 mph 43 % 0 in
16:45 65.8 °F 42.6 °F 30.2 in Calm     43 % 0 in
16:50 66.2 °F 43 °F 30.2 in Calm     43 % 0 in
16:55 66.2 °F 43.5 °F 30.2 in SSW 1.2 mph 1.2 mph 44 % 0 in
17:00 66 °F 44.1 °F 30.2 in SSW 1.2 mph 1.2 mph 45 % 0 in
17:05 65.8 °F 43.9 °F 30.2 in SW 2.3 mph 2.3 mph 45 % 0 in
17:10 65.3 °F 43.3 °F 30.2 in SW 1.2 mph 1.2 mph 45 % 0 in
17:15 64.8 °F 43 °F 30.2 in SW 1.2 mph 1.2 mph 45 % 0 in
17:20 64 °F 42.3 °F 30.2 in SW 1.4 mph 1.4 mph 45 % 0 in
17:25 63.5 °F 41.7 °F 30.2 in SW 1.2 mph   45 % 0 in
17:30 62.8 °F 41.2 °F 30.2 in SW 2.3 mph 2.3 mph 45 % 0 in
17:35 62.4 °F 41.4 °F 30.2 in Calm     46 % 0 in
17:40 61.9 °F 40.8 °F 30.2 in ENE 2.3 mph 2.3 mph 46 % 0 in
17:45 61.5 °F 40.5 °F 30.2 in Calm     46 % 0 in
17:50 61.3 °F 40.5 °F 30.2 in NNW 1.2 mph 1.2 mph 46 % 0 in
17:55 61.2 °F 40.3 °F 30.2 in Calm     46 % 0 in
18:00 61.2 °F 40.3 °F 30.2 in NNW 1.2 mph 1.2 mph 46 % 0 in
18:05 60.8 °F 39.9 °F 30.2 in NNW 1.4 mph 1.4 mph 46 % 0 in
18:10 60.6 °F 39.7 °F 30.2 in NNE 1.2 mph 1.2 mph 46 % 0 in
18:15 59 °F 38.1 °F 30.2 in WSW 1.4 mph 1.4 mph 46 % 0 in
18:20 45.9 °F 30.6 °F 30.1 in West 2 mph 2 mph 55 % 0 in
18:25 57.9 °F 37.2 °F 30.2 in SW 2.3 mph 2.3 mph 46 % 0 in
18:30 57.4 °F 36.9 °F 30.2 in West 1.4 mph 1.4 mph 46 % 0 in
18:35 57.6 °F 36.9 °F 30.2 in WSW 1.4 mph 1.4 mph 46 % 0 in
18:40 57.6 °F 36.9 °F 30.2 in West 2 mph 2 mph 46 % 0 in
18:45 57.4 °F 36.9 °F 30.2 in SW 2.4 mph 2.4 mph 46 % 0 in
18:50 57.2 °F 36.7 °F 30.2 in SW 2.2 mph 2.2 mph 46 % 0 in
18:55 56.7 °F 36.1 °F 30.2 in SW 2.3 mph 2.3 mph 46 % 0 in
19:00 45.7 °F 30.4 °F 30.1 in Calm   2 mph 55 % 0 in
19:10 56.1 °F 35.6 °F 30.2 in West 1.2 mph 1.4 mph 46 % 0 in
19:15 55.9 °F 35.4 °F 30.2 in West 1.2 mph   46 % 0 in
19:20 45.7 °F 30.9 °F 30.1 in West 1 mph 1 mph 56 % 0 in
19:25 55.6 °F 35.1 °F 30.2 in West 1.2 mph   46 % 0 in
19:30 55.4 °F 34.9 °F 30.2 in West 1.6 mph 1.6 mph 46 % 0 in
19:35 55 °F 34.5 °F 30.2 in WNW 1.2 mph 1.2 mph 46 % 0 in
19:40 44.8 °F 30.6 °F 30.1 in Calm     57 % 0 in
19:55 54 °F 33.6 °F 30.2 in Calm     46 % 0 in
20:00 54 °F 34.2 °F 30.2 in NNW 1.4 mph 1.4 mph 47 % 0 in
20:05 54 °F 34.2 °F 30.2 in Calm     47 % 0 in
20:10 53.2 °F 33.4 °F 30.2 in West 1.2 mph   47 % 0 in
20:15 53.1 °F 33.3 °F 30.2 in Calm     47 % 0 in
20:20 44.1 °F 30.2 °F 30.1 in WSW 1 mph 2 mph 58 % 0 in
20:26 52.5 °F 32.9 °F 30.2 in West 2.3 mph 2.3 mph 47 % 0 in
20:30 52.7 °F 33.1 °F 30.2 in SW 2.4 mph 2.4 mph 47 % 0 in
20:35 52.5 °F 33.4 °F 30.2 in SW 1.2 mph 1.2 mph 48 % 0 in
20:50 44.2 °F 30.4 °F 30.1 in Calm     58 % 0 in
20:51 51.6 °F 32.5 °F 30.2 in WSW 2.3 mph 2.3 mph 48 % 0 in
21:00 51.4 °F 32.9 °F 30.2 in Calm     49 % 0 in
21:05 51.1 °F 32.5 °F 30.2 in WSW 1.4 mph 1.4 mph 49 % 0 in
21:06 51.1 °F 32.5 °F 30.2 in WSW 2.2 mph 2.2 mph 49 % 0 in
21:10 44.4 °F 30.9 °F 30.1 in Calm     59 % 0 in
21:11 50.7 °F 32.7 °F 30.2 in WSW 2.3 mph 2.3 mph 50 % 0 in
21:20 44.2 °F 30.7 °F 30.1 in Calm   1 mph 59 % 0 in
21:30 44.4 °F 30.9 °F 30.1 in Calm     59 % 0 in
21:31 50.2 °F 32.7 °F 30.1 in NNW 1.6 mph 1.6 mph 51 % 0 in
21:40 43.7 °F 30.4 °F 30.1 in North 1 mph 2 mph 59 % 0 in
21:41 50.2 °F 32.7 °F 30.1 in ENE 2.3 mph 2.3 mph 51 % 0 in
21:46 50 °F 32.5 °F 30.1 in WSW 2.4 mph 2.4 mph 51 % 0 in
22:00 43 °F 29.7 °F 30.1 in East 1 mph 2 mph 59 % 0 in
22:06 49.1 °F 32.2 °F 30.1 in ENE 1.2 mph 1.2 mph 52 % 0 in
22:10 42.6 °F 29.7 °F 30.1 in Calm   2 mph 60 % 0 in
22:11 48.9 °F 32 °F 30.1 in Calm     52 % 0 in
22:16 48.7 °F 31.8 °F 30.1 in Calm     52 % 0 in
22:20 42.1 °F 29.1 °F 30.1 in SW 1 mph 2 mph 60 % 0 in
22:21 48.6 °F 31.6 °F 30.2 in ENE 1.2 mph 1.2 mph 52 % 0 in
22:30 42.1 °F 29.7 °F 30.1 in WSW 2 mph 2 mph 61 % 0 in
22:31 48.4 °F 32 °F 30.2 in Calm     53 % 0 in
22:36 48.2 °F 31.8 °F 30.2 in SW 2.6 mph 2.6 mph 53 % 0 in
22:40 42.4 °F 29.5 °F 30.1 in Calm   2 mph 60 % 0 in
22:41 48.2 °F 31.5 °F 30.2 in WSW 1.4 mph 1.6 mph 52 % 0 in
22:46 48 °F 31.6 °F 30.2 in Calm     53 % 0 in
22:51 47.8 °F 31.5 °F 30.1 in Calm     53 % 0 in
22:56 48 °F 31.6 °F 30.1 in NNW 1.4 mph   53 % 0 in
23:00 42.4 °F 29.8 °F 30.1 in Calm   1 mph 61 % 0 in
23:01 47.8 °F 31.5 °F 30.1 in Calm     53 % 0 in
23:06 47.5 °F 31.3 °F 30.1 in Calm     53 % 0 in
23:11 47.1 °F 30.9 °F 30.1 in Calm     53 % 0 in
23:20 42.1 °F 30 °F 30.1 in North 2 mph 2 mph 62 % 0 in
23:21 46.8 °F 30.9 °F 30.1 in Calm     54 % 0 in
23:26 46.8 °F 30.9 °F 30.1 in North 2 mph 2 mph 54 % 0 in
23:30 41.9 °F 29.8 °F 30.1 in Calm   2 mph 62 % 0 in
23:31 46.8 °F 30.9 °F 30.1 in NNE 1.4 mph   54 % 0 in
23:40 41.4 °F 29.3 °F 30.1 in Calm     62 % 0 in
23:41 46.9 °F 31.1 °F 30.1 in Calm     54 % 0 in
23:46 46.9 °F 31.6 °F 30.1 in Calm     55 % 0 in
Meteo Sesrovires
Elogis d' Weather Underground - 3.25 mb

Guio original per  Jim McMurry - jmcmurry@mwt.net Adaptat per a la plantilla per  Wim van der Kuil - Leuven-Template.eu

Trobareu la nostra informacio del temps tambe a:

Weather Underground

AWEKAS